sensor_id;sensor_type;location;lat;lon;timestamp;pressure;altitude;pressure_sealevel;temperature;humidity
24422;BME280;12600;53.326;-6.298;2023-08-06T00:01:04;101453.34;;;14.48;81.65
24422;BME280;12600;53.326;-6.298;2023-08-06T00:03:53;101442.44;;;14.43;82.13
24422;BME280;12600;53.326;-6.298;2023-08-06T00:06:44;101452.44;;;14.39;81.99
24422;BME280;12600;53.326;-6.298;2023-08-06T00:09:34;101447.06;;;14.34;82.34
24422;BME280;12600;53.326;-6.298;2023-08-06T00:12:23;101446.09;;;14.30;82.42
24422;BME280;12600;53.326;-6.298;2023-08-06T00:15:12;101444.28;;;14.25;82.35
24422;BME280;12600;53.326;-6.298;2023-08-06T00:18:02;101447.66;;;14.22;82.52
24422;BME280;12600;53.326;-6.298;2023-08-06T00:20:53;101454.59;;;14.19;82.74
24422;BME280;12600;53.326;-6.298;2023-08-06T00:23:43;101436.75;;;14.08;83.01
24422;BME280;12600;53.326;-6.298;2023-08-06T00:26:33;101437.56;;;14.09;83.26
24422;BME280;12600;53.326;-6.298;2023-08-06T00:29:22;101454.25;;;14.12;83.28
24422;BME280;12600;53.326;-6.298;2023-08-06T00:32:11;101454.53;;;14.11;83.24
24422;BME280;12600;53.326;-6.298;2023-08-06T00:35:01;101456.47;;;14.10;83.42
24422;BME280;12600;53.326;-6.298;2023-08-06T00:37:51;101460.19;;;14.06;83.35
24422;BME280;12600;53.326;-6.298;2023-08-06T00:40:41;101463.41;;;14.08;83.33
24422;BME280;12600;53.326;-6.298;2023-08-06T00:43:31;101461.09;;;14.01;83.48
24422;BME280;12600;53.326;-6.298;2023-08-06T00:46:21;101459.78;;;13.98;83.42
24422;BME280;12600;53.326;-6.298;2023-08-06T00:49:10;101464.47;;;13.98;83.64
24422;BME280;12600;53.326;-6.298;2023-08-06T00:52:00;101466.53;;;13.92;83.81
24422;BME280;12600;53.326;-6.298;2023-08-06T00:54:49;101470.59;;;13.95;83.49
24422;BME280;12600;53.326;-6.298;2023-08-06T00:57:40;101468.78;;;13.90;84.02
24422;BME280;12600;53.326;-6.298;2023-08-06T01:00:30;101467.16;;;13.89;83.95
24422;BME280;12600;53.326;-6.298;2023-08-06T01:03:19;101461.47;;;13.86;84.17
24422;BME280;12600;53.326;-6.298;2023-08-06T01:06:08;101464.53;;;13.84;84.15
24422;BME280;12600;53.326;-6.298;2023-08-06T01:09:03;101452.56;;;13.80;84.55
24422;BME280;12600;53.326;-6.298;2023-08-06T01:12:09;101459.66;;;13.81;84.70
24422;BME280;12600;53.326;-6.298;2023-08-06T01:15:07;101463.41;;;13.85;84.78
24422;BME280;12600;53.326;-6.298;2023-08-06T01:17:57;101457.09;;;13.85;84.27
24422;BME280;12600;53.326;-6.298;2023-08-06T01:20:49;101459.84;;;13.85;84.69
24422;BME280;12600;53.326;-6.298;2023-08-06T01:23:39;101459.84;;;13.85;84.67
24422;BME280;12600;53.326;-6.298;2023-08-06T01:26:35;101464.53;;;13.84;84.52
24422;BME280;12600;53.326;-6.298;2023-08-06T01:29:34;101459.03;;;13.84;84.71
24422;BME280;12600;53.326;-6.298;2023-08-06T01:32:27;101462.91;;;13.83;84.70
24422;BME280;12600;53.326;-6.298;2023-08-06T01:35:19;101464.03;;;13.82;84.91
24422;BME280;12600;53.326;-6.298;2023-08-06T01:38:11;101445.34;;;13.70;84.77
24422;BME280;12600;53.326;-6.298;2023-08-06T01:41:00;101466.78;;;13.82;84.98
24422;BME280;12600;53.326;-6.298;2023-08-06T01:43:50;101465.97;;;13.82;84.98
24422;BME280;12600;53.326;-6.298;2023-08-06T01:46:39;101476.31;;;13.85;84.91
24422;BME280;12600;53.326;-6.298;2023-08-06T01:49:28;101472.78;;;13.84;85.10
24422;BME280;12600;53.326;-6.298;2023-08-06T01:52:18;101475.53;;;13.84;84.93
24422;BME280;12600;53.326;-6.298;2023-08-06T01:55:09;101476.00;;;13.86;84.83
24422;BME280;12600;53.326;-6.298;2023-08-06T01:57:58;101483.44;;;13.86;84.63
24422;BME280;12600;53.326;-6.298;2023-08-06T02:00:47;101490.56;;;13.87;84.97
24422;BME280;12600;53.326;-6.298;2023-08-06T02:03:36;101488.94;;;13.86;84.74
24422;BME280;12600;53.326;-6.298;2023-08-06T02:06:26;101483.75;;;13.84;84.75
24422;BME280;12600;53.326;-6.298;2023-08-06T02:09:15;101488.75;;;13.82;84.65
24422;BME280;12600;53.326;-6.298;2023-08-06T02:12:07;101492.63;;;13.81;84.97
24422;BME280;12600;53.326;-6.298;2023-08-06T02:14:57;101496.50;;;13.80;85.21
24422;BME280;12600;53.326;-6.298;2023-08-06T02:17:46;101493.44;;;13.82;84.95
24422;BME280;12600;53.326;-6.298;2023-08-06T02:20:35;101488.75;;;13.82;85.50
24422;BME280;12600;53.326;-6.298;2023-08-06T02:23:25;101484.72;;;13.80;85.06
24422;BME280;12600;53.326;-6.298;2023-08-06T02:26:15;101491.19;;;13.84;85.39
24422;BME280;12600;53.326;-6.298;2023-08-06T02:29:06;101483.13;;;13.87;85.72
24422;BME280;12600;53.326;-6.298;2023-08-06T02:31:56;101485.28;;;13.90;85.69
24422;BME280;12600;53.326;-6.298;2023-08-06T02:34:47;101490.44;;;13.92;86.45
24422;BME280;12600;53.326;-6.298;2023-08-06T02:37:38;101481.06;;;13.93;86.31
24422;BME280;12600;53.326;-6.298;2023-08-06T02:40:27;101489.69;;;14.00;86.87
24422;BME280;12600;53.326;-6.298;2023-08-06T02:43:16;101487.66;;;14.06;86.74
24422;BME280;12600;53.326;-6.298;2023-08-06T02:46:07;101492.34;;;14.05;86.90
24422;BME280;12600;53.326;-6.298;2023-08-06T02:48:57;101493.16;;;14.06;86.94
24422;BME280;12600;53.326;-6.298;2023-08-06T02:51:46;101487.16;;;14.04;86.86
24422;BME280;12600;53.326;-6.298;2023-08-06T02:54:36;101483.56;;;14.03;86.73
24422;BME280;12600;53.326;-6.298;2023-08-06T02:57:25;101480.16;;;13.97;87.05
24422;BME280;12600;53.326;-6.298;2023-08-06T03:00:16;101487.06;;;13.95;87.25
24422;BME280;12600;53.326;-6.298;2023-08-06T03:03:07;101481.88;;;13.93;87.17
24422;BME280;12600;53.326;-6.298;2023-08-06T03:06:13;101470.09;;;13.93;87.58
24422;BME280;12600;53.326;-6.298;2023-08-06T03:09:07;101476.41;;;13.93;87.47
24422;BME280;12600;53.326;-6.298;2023-08-06T03:11:58;101475.25;;;13.94;87.54
24422;BME280;12600;53.326;-6.298;2023-08-06T03:14:47;101475.16;;;13.99;87.64
24422;BME280;12600;53.326;-6.298;2023-08-06T03:17:37;101472.59;;;14.03;87.81
24422;BME280;12600;53.326;-6.298;2023-08-06T03:20:30;101460.72;;;13.94;87.62
24422;BME280;12600;53.326;-6.298;2023-08-06T03:23:20;101461.25;;;13.96;87.42
24422;BME280;12600;53.326;-6.298;2023-08-06T03:26:09;101468.66;;;13.95;87.20
24422;BME280;12600;53.326;-6.298;2023-08-06T03:28:59;101472.03;;;13.92;87.31
24422;BME280;12600;53.326;-6.298;2023-08-06T03:31:52;101468.28;;;13.88;87.16
24422;BME280;12600;53.326;-6.298;2023-08-06T03:34:41;101476.81;;;13.87;87.54
24422;BME280;12600;53.326;-6.298;2023-08-06T03:37:33;101470.50;;;13.86;87.32
24422;BME280;12600;53.326;-6.298;2023-08-06T03:40:22;101473.25;;;13.86;87.67
24422;BME280;12600;53.326;-6.298;2023-08-06T03:43:12;101468.41;;;13.83;87.73
24422;BME280;12600;53.326;-6.298;2023-08-06T03:46:02;101479.88;;;13.85;87.56
24422;BME280;12600;53.326;-6.298;2023-08-06T03:48:52;101471.66;;;13.85;87.83
24422;BME280;12600;53.326;-6.298;2023-08-06T03:51:41;101467.97;;;13.90;87.94
24422;BME280;12600;53.326;-6.298;2023-08-06T03:54:32;101471.03;;;13.88;88.07
24422;BME280;12600;53.326;-6.298;2023-08-06T03:57:22;101476.88;;;13.95;88.13
24422;BME280;12600;53.326;-6.298;2023-08-06T04:00:12;101483.41;;;13.99;87.51
24422;BME280;12600;53.326;-6.298;2023-08-06T04:03:02;101479.53;;;14.00;87.56
24422;BME280;12600;53.326;-6.298;2023-08-06T04:05:52;101486.31;;;14.03;87.75
24422;BME280;12600;53.326;-6.298;2023-08-06T04:08:41;101477.78;;;14.05;87.55
24422;BME280;12600;53.326;-6.298;2023-08-06T04:11:32;101478.28;;;14.07;87.31
24422;BME280;12600;53.326;-6.298;2023-08-06T04:14:23;101478.72;;;14.00;87.28
24422;BME280;12600;53.326;-6.298;2023-08-06T04:17:12;101485.00;;;14.00;87.50
24422;BME280;12600;53.326;-6.298;2023-08-06T04:20:02;101485.81;;;14.01;87.17
24422;BME280;12600;53.326;-6.298;2023-08-06T04:22:54;101478.72;;;14.00;87.34
24422;BME280;12600;53.326;-6.298;2023-08-06T04:25:43;101485.66;;;13.97;87.05
24422;BME280;12600;53.326;-6.298;2023-08-06T04:28:36;101491.47;;;13.96;86.86
24422;BME280;12600;53.326;-6.298;2023-08-06T04:31:25;101484.56;;;13.85;87.09
24422;BME280;12600;53.326;-6.298;2023-08-06T04:34:14;101487.81;;;13.87;87.01
24422;BME280;12600;53.326;-6.298;2023-08-06T04:37:05;101493.63;;;13.85;87.25
24422;BME280;12600;53.326;-6.298;2023-08-06T04:39:54;101492.63;;;13.81;87.02
24422;BME280;12600;53.326;-6.298;2023-08-06T04:42:43;101492.09;;;13.79;87.56
24422;BME280;12600;53.326;-6.298;2023-08-06T04:45:34;101488.19;;;13.71;87.90
24422;BME280;12600;53.326;-6.298;2023-08-06T04:48:23;101490.63;;;13.73;87.65
24422;BME280;12600;53.326;-6.298;2023-08-06T04:51:14;101489.00;;;13.72;87.63
24422;BME280;12600;53.326;-6.298;2023-08-06T04:54:07;101485.22;;;13.68;88.30
24422;BME280;12600;53.326;-6.298;2023-08-06T04:56:56;101491.22;;;13.70;88.08
24422;BME280;12600;53.326;-6.298;2023-08-06T04:59:45;101495.09;;;13.69;87.99
24422;BME280;12600;53.326;-6.298;2023-08-06T05:02:37;101495.59;;;13.71;88.08
24422;BME280;12600;53.326;-6.298;2023-08-06T05:05:27;101491.84;;;13.67;88.17
24422;BME280;12600;53.326;-6.298;2023-08-06T05:08:16;101501.09;;;13.71;88.12
24422;BME280;12600;53.326;-6.298;2023-08-06T05:11:06;101508.81;;;13.69;87.80
24422;BME280;12600;53.326;-6.298;2023-08-06T05:13:55;101508.97;;;13.64;88.02
24422;BME280;12600;53.326;-6.298;2023-08-06T05:16:44;101513.31;;;13.65;88.10
24422;BME280;12600;53.326;-6.298;2023-08-06T05:19:35;101516.56;;;13.67;88.21
24422;BME280;12600;53.326;-6.298;2023-08-06T05:22:27;101511.06;;;13.67;88.36
24422;BME280;12600;53.326;-6.298;2023-08-06T05:25:18;101514.44;;;13.64;88.17
24422;BME280;12600;53.326;-6.298;2023-08-06T05:28:10;101524.81;;;13.67;88.60
24422;BME280;12600;53.326;-6.298;2023-08-06T05:31:03;101528.84;;;13.69;88.31
24422;BME280;12600;53.326;-6.298;2023-08-06T05:33:52;101524.19;;;13.70;88.83
24422;BME280;12600;53.326;-6.298;2023-08-06T05:36:45;101520.31;;;13.71;88.76
24422;BME280;12600;53.326;-6.298;2023-08-06T05:39:34;101524.50;;;13.68;89.14
24422;BME280;12600;53.326;-6.298;2023-08-06T05:42:24;101523.06;;;13.71;88.98
24422;BME280;12600;53.326;-6.298;2023-08-06T05:45:13;101516.06;;;13.65;89.25
24422;BME280;12600;53.326;-6.298;2023-08-06T05:48:04;101529.75;;;13.79;89.35
24422;BME280;12600;53.326;-6.298;2023-08-06T05:50:53;101534.63;;;13.82;89.60
24422;BME280;12600;53.326;-6.298;2023-08-06T05:53:46;101536.97;;;13.88;89.40
24422;BME280;12600;53.326;-6.298;2023-08-06T05:56:37;101536.72;;;13.98;89.75
24422;BME280;12600;53.326;-6.298;2023-08-06T05:59:26;101531.94;;;14.04;89.81
24422;BME280;12600;53.326;-6.298;2023-08-06T06:02:16;101537.50;;;14.13;89.82
24422;BME280;12600;53.326;-6.298;2023-08-06T06:05:07;101534.00;;;14.21;89.97
24422;BME280;12600;53.326;-6.298;2023-08-06T06:07:57;101539.25;;;14.31;89.99
24422;BME280;12600;53.326;-6.298;2023-08-06T06:10:48;101538.09;;;14.46;89.79
24422;BME280;12600;53.326;-6.298;2023-08-06T06:13:37;101549.19;;;14.63;89.92
24422;BME280;12600;53.326;-6.298;2023-08-06T06:16:27;101550.06;;;14.72;89.65
24422;BME280;12600;53.326;-6.298;2023-08-06T06:19:16;101544.47;;;14.86;89.67
24422;BME280;12600;53.326;-6.298;2023-08-06T06:22:06;101544.88;;;15.02;89.55
24422;BME280;12600;53.326;-6.298;2023-08-06T06:24:55;101553.00;;;15.16;89.52
24422;BME280;12600;53.326;-6.298;2023-08-06T06:27:46;101554.97;;;15.24;88.72
24422;BME280;12600;53.326;-6.298;2023-08-06T06:30:38;101554.53;;;15.39;89.25
24422;BME280;12600;53.326;-6.298;2023-08-06T06:33:27;101560.06;;;15.48;88.90
24422;BME280;12600;53.326;-6.298;2023-08-06T06:36:16;101557.38;;;15.56;88.25
24422;BME280;12600;53.326;-6.298;2023-08-06T06:39:09;101547.97;;;15.57;88.22
24422;BME280;12600;53.326;-6.298;2023-08-06T06:41:58;101552.53;;;15.62;88.13
24422;BME280;12600;53.326;-6.298;2023-08-06T06:44:57;101556.28;;;15.75;87.73
24422;BME280;12600;53.326;-6.298;2023-08-06T06:47:47;101565.34;;;15.75;87.10
24422;BME280;12600;53.326;-6.298;2023-08-06T06:50:36;101561.94;;;15.78;86.99
24422;BME280;12600;53.326;-6.298;2023-08-06T06:53:27;101562.94;;;15.82;86.82
24422;BME280;12600;53.326;-6.298;2023-08-06T06:56:16;101559.53;;;15.85;87.05
24422;BME280;12600;53.326;-6.298;2023-08-06T06:59:05;101570.22;;;15.95;86.68
24422;BME280;12600;53.326;-6.298;2023-08-06T07:01:56;101568.78;;;15.98;86.35
24422;BME280;12600;53.326;-6.298;2023-08-06T07:04:45;101572.19;;;16.04;85.69
24422;BME280;12600;53.326;-6.298;2023-08-06T07:07:35;101562.28;;;16.11;85.53
24422;BME280;12600;53.326;-6.298;2023-08-06T07:10:26;101565.56;;;16.13;84.90
24422;BME280;12600;53.326;-6.298;2023-08-06T07:13:15;101549.84;;;15.97;84.43
24422;BME280;12600;53.326;-6.298;2023-08-06T07:16:05;101567.81;;;16.03;84.46
24422;BME280;12600;53.326;-6.298;2023-08-06T07:18:59;101560.34;;;16.03;84.84
24422;BME280;12600;53.326;-6.298;2023-08-06T07:21:49;101560.03;;;16.05;84.83
24422;BME280;12600;53.326;-6.298;2023-08-06T07:24:39;101558.44;;;16.12;84.87
24422;BME280;12600;53.326;-6.298;2023-08-06T07:27:28;101562.16;;;16.16;84.40
24422;BME280;12600;53.326;-6.298;2023-08-06T07:30:18;101569.28;;;16.26;84.30
24422;BME280;12600;53.326;-6.298;2023-08-06T07:33:07;101568.63;;;16.38;84.36
24422;BME280;12600;53.326;-6.298;2023-08-06T07:36:11;101575.91;;;16.51;83.78
24422;BME280;12600;53.326;-6.298;2023-08-06T07:39:01;101569.41;;;16.64;82.87
24422;BME280;12600;53.326;-6.298;2023-08-06T07:41:58;101567.88;;;17.01;83.64
24422;BME280;12600;53.326;-6.298;2023-08-06T07:44:58;101561.94;;;17.20;82.10
24422;BME280;12600;53.326;-6.298;2023-08-06T07:47:48;101571.06;;;17.50;80.96
24422;BME280;12600;53.326;-6.298;2023-08-06T07:50:43;101574.38;;;17.73;80.73
24422;BME280;12600;53.326;-6.298;2023-08-06T07:53:41;101574.56;;;18.10;81.17
24422;BME280;12600;53.326;-6.298;2023-08-06T07:56:43;101578.44;;;18.51;82.60
24422;BME280;12600;53.326;-6.298;2023-08-06T07:59:37;101561.38;;;18.69;80.42
24422;BME280;12600;53.326;-6.298;2023-08-06T08:02:28;101576.94;;;18.74;75.83
24422;BME280;12600;53.326;-6.298;2023-08-06T08:05:19;101572.09;;;18.71;76.28
24422;BME280;12600;53.326;-6.298;2023-08-06T08:08:09;101577.53;;;18.80;76.02
24422;BME280;12600;53.326;-6.298;2023-08-06T08:11:02;101573.28;;;18.82;74.98
24422;BME280;12600;53.326;-6.298;2023-08-06T08:13:52;101569.03;;;18.97;76.59
24422;BME280;12600;53.326;-6.298;2023-08-06T08:16:41;101569.88;;;19.10;74.93
24422;BME280;12600;53.326;-6.298;2023-08-06T08:19:31;101570.22;;;19.33;75.00
24422;BME280;12600;53.326;-6.298;2023-08-06T08:22:21;101568.75;;;19.60;74.77
24422;BME280;12600;53.326;-6.298;2023-08-06T08:25:10;101571.03;;;19.70;74.17
24422;BME280;12600;53.326;-6.298;2023-08-06T08:28:01;101559.44;;;19.92;73.16
24422;BME280;12600;53.326;-6.298;2023-08-06T08:30:50;101570.75;;;19.99;71.92
24422;BME280;12600;53.326;-6.298;2023-08-06T08:33:39;101567.78;;;19.92;69.53
24422;BME280;12600;53.326;-6.298;2023-08-06T08:36:29;101568.81;;;19.88;68.85
24422;BME280;12600;53.326;-6.298;2023-08-06T08:39:18;101568.00;;;19.99;69.94
24422;BME280;12600;53.326;-6.298;2023-08-06T08:42:07;101574.41;;;20.16;68.70
24422;BME280;12600;53.326;-6.298;2023-08-06T08:44:59;101574.66;;;20.10;67.67
24422;BME280;12600;53.326;-6.298;2023-08-06T08:47:49;101575.09;;;20.12;67.18
24422;BME280;12600;53.326;-6.298;2023-08-06T08:50:39;101573.19;;;20.29;66.42
24422;BME280;12600;53.326;-6.298;2023-08-06T08:53:29;101568.53;;;20.45;67.07
24422;BME280;12600;53.326;-6.298;2023-08-06T08:56:19;101570.41;;;20.29;64.66
24422;BME280;12600;53.326;-6.298;2023-08-06T08:59:10;101566.16;;;20.31;65.15
24422;BME280;12600;53.326;-6.298;2023-08-06T09:02:02;101569.56;;;20.68;65.72
24422;BME280;12600;53.326;-6.298;2023-08-06T09:04:53;101570.75;;;20.83;61.29
24422;BME280;12600;53.326;-6.298;2023-08-06T09:07:43;101568.09;;;21.18;62.65
24422;BME280;12600;53.326;-6.298;2023-08-06T09:10:36;101567.28;;;21.49;62.23
24422;BME280;12600;53.326;-6.298;2023-08-06T09:13:26;101571.13;;;21.96;62.54
24422;BME280;12600;53.326;-6.298;2023-08-06T09:16:16;101568.69;;;22.10;61.03
24422;BME280;12600;53.326;-6.298;2023-08-06T09:19:10;101560.84;;;21.81;57.19
24422;BME280;12600;53.326;-6.298;2023-08-06T09:22:00;101570.59;;;21.55;58.42
24422;BME280;12600;53.326;-6.298;2023-08-06T09:24:49;101578.13;;;21.07;58.01
24422;BME280;12600;53.326;-6.298;2023-08-06T09:27:39;101570.81;;;20.43;58.83
24422;BME280;12600;53.326;-6.298;2023-08-06T09:30:33;101574.28;;;20.12;59.73
24422;BME280;12600;53.326;-6.298;2023-08-06T09:33:23;101577.22;;;20.03;60.20
24422;BME280;12600;53.326;-6.298;2023-08-06T09:36:23;101583.38;;;19.72;61.69
24422;BME280;12600;53.326;-6.298;2023-08-06T09:39:13;101570.47;;;19.76;62.01
24422;BME280;12600;53.326;-6.298;2023-08-06T09:42:04;101585.38;;;20.12;62.78
24422;BME280;12600;53.326;-6.298;2023-08-06T09:45:06;101585.66;;;20.47;62.80
24422;BME280;12600;53.326;-6.298;2023-08-06T09:47:57;101585.00;;;20.82;62.61
24422;BME280;12600;53.326;-6.298;2023-08-06T09:50:47;101577.31;;;20.91;61.12
24422;BME280;12600;53.326;-6.298;2023-08-06T09:53:40;101582.69;;;21.15;60.59
24422;BME280;12600;53.326;-6.298;2023-08-06T09:56:30;101578.25;;;21.27;59.51
24422;BME280;12600;53.326;-6.298;2023-08-06T09:59:25;101580.25;;;21.77;58.89
24422;BME280;12600;53.326;-6.298;2023-08-06T10:02:15;101578.72;;;22.34;57.20
24422;BME280;12600;53.326;-6.298;2023-08-06T10:05:07;101583.00;;;22.89;54.58
24422;BME280;12600;53.326;-6.298;2023-08-06T10:07:57;101588.19;;;23.37;54.64
24422;BME280;12600;53.326;-6.298;2023-08-06T10:10:50;101587.28;;;23.56;52.34
24422;BME280;12600;53.326;-6.298;2023-08-06T10:13:42;101580.44;;;24.06;52.65
24422;BME280;12600;53.326;-6.298;2023-08-06T10:16:32;101581.88;;;24.23;49.86
24422;BME280;12600;53.326;-6.298;2023-08-06T10:19:22;101582.97;;;24.15;47.69
24422;BME280;12600;53.326;-6.298;2023-08-06T10:22:13;101573.50;;;24.23;47.03
24422;BME280;12600;53.326;-6.298;2023-08-06T10:25:05;101577.13;;;23.97;47.62
24422;BME280;12600;53.326;-6.298;2023-08-06T10:27:56;101588.38;;;23.74;49.44
24422;BME280;12600;53.326;-6.298;2023-08-06T10:30:46;101584.66;;;23.17;50.95
24422;BME280;12600;53.326;-6.298;2023-08-06T10:33:42;101581.28;;;22.62;51.59
24422;BME280;12600;53.326;-6.298;2023-08-06T10:36:32;101584.78;;;22.59;52.40
24422;BME280;12600;53.326;-6.298;2023-08-06T10:39:21;101580.78;;;22.02;52.67
24422;BME280;12600;53.326;-6.298;2023-08-06T10:42:22;101580.03;;;21.50;53.01
24422;BME280;12600;53.326;-6.298;2023-08-06T10:45:16;101582.03;;;21.34;53.96
24422;BME280;12600;53.326;-6.298;2023-08-06T10:48:06;101577.31;;;21.22;55.20
24422;BME280;12600;53.326;-6.298;2023-08-06T10:50:56;101587.75;;;21.26;55.72
24422;BME280;12600;53.326;-6.298;2023-08-06T10:53:47;101585.91;;;21.65;54.46
24422;BME280;12600;53.326;-6.298;2023-08-06T10:56:41;101590.34;;;22.59;54.62
24422;BME280;12600;53.326;-6.298;2023-08-06T10:59:31;101584.47;;;23.29;52.74
24422;BME280;12600;53.326;-6.298;2023-08-06T11:02:21;101580.50;;;24.10;51.43
24422;BME280;12600;53.326;-6.298;2023-08-06T11:05:12;101580.34;;;24.29;48.08
24422;BME280;12600;53.326;-6.298;2023-08-06T11:08:01;101565.78;;;24.43;47.52
24422;BME280;12600;53.326;-6.298;2023-08-06T11:10:51;101589.47;;;24.56;47.25
24422;BME280;12600;53.326;-6.298;2023-08-06T11:13:51;101597.47;;;23.97;48.16
24422;BME280;12600;53.326;-6.298;2023-08-06T11:16:41;101614.88;;;22.92;51.53
24422;BME280;12600;53.326;-6.298;2023-08-06T11:19:32;101609.91;;;21.89;56.32
24422;BME280;12600;53.326;-6.298;2023-08-06T11:22:23;101592.47;;;21.09;59.45
24422;BME280;12600;53.326;-6.298;2023-08-06T11:25:12;101606.44;;;20.81;61.01
24422;BME280;12600;53.326;-6.298;2023-08-06T11:28:01;101598.81;;;20.50;62.11
24422;BME280;12600;53.326;-6.298;2023-08-06T11:30:52;101591.38;;;20.26;62.62
24422;BME280;12600;53.326;-6.298;2023-08-06T11:33:43;101588.16;;;20.24;63.55
24422;BME280;12600;53.326;-6.298;2023-08-06T11:36:40;101593.78;;;20.28;63.37
24422;BME280;12600;53.326;-6.298;2023-08-06T11:39:30;101587.91;;;20.29;64.01
24422;BME280;12600;53.326;-6.298;2023-08-06T11:42:19;101596.53;;;20.40;64.26
24422;BME280;12600;53.326;-6.298;2023-08-06T11:45:09;101598.59;;;20.55;64.09
24422;BME280;12600;53.326;-6.298;2023-08-06T11:48:00;101590.94;;;20.96;63.98
24422;BME280;12600;53.326;-6.298;2023-08-06T11:50:54;101589.06;;;21.63;63.53
24422;BME280;12600;53.326;-6.298;2023-08-06T11:53:49;101582.31;;;22.34;63.60
24422;BME280;12600;53.326;-6.298;2023-08-06T11:56:38;101589.94;;;22.99;61.63
24422;BME280;12600;53.326;-6.298;2023-08-06T11:59:28;101587.19;;;23.26;59.29
24422;BME280;12600;53.326;-6.298;2023-08-06T12:02:17;101579.56;;;23.45;59.80
24422;BME280;12600;53.326;-6.298;2023-08-06T12:05:12;101576.31;;;23.93;58.35
24422;BME280;12600;53.326;-6.298;2023-08-06T12:08:03;101579.22;;;24.67;55.41
24422;BME280;12600;53.326;-6.298;2023-08-06T12:10:53;101584.66;;;25.34;52.82
24422;BME280;12600;53.326;-6.298;2023-08-06T12:13:43;101594.69;;;25.98;51.05
24422;BME280;12600;53.326;-6.298;2023-08-06T12:16:32;101581.13;;;26.00;49.04
24422;BME280;12600;53.326;-6.298;2023-08-06T12:19:22;101590.78;;;26.09;47.22
24422;BME280;12600;53.326;-6.298;2023-08-06T12:22:11;101576.03;;;26.27;45.35
24422;BME280;12600;53.326;-6.298;2023-08-06T12:25:02;101570.06;;;26.32;44.36
24422;BME280;12600;53.326;-6.298;2023-08-06T12:27:56;101574.19;;;26.66;44.68
24422;BME280;12600;53.326;-6.298;2023-08-06T12:30:45;101572.22;;;26.99;43.34
24422;BME280;12600;53.326;-6.298;2023-08-06T12:33:35;101571.47;;;27.30;43.61
24422;BME280;12600;53.326;-6.298;2023-08-06T12:36:24;101567.00;;;26.80;42.91
24422;BME280;12600;53.326;-6.298;2023-08-06T12:39:14;101575.16;;;26.12;43.85
24422;BME280;12600;53.326;-6.298;2023-08-06T12:42:04;101574.56;;;25.23;45.61
24422;BME280;12600;53.326;-6.298;2023-08-06T12:44:58;101566.84;;;24.68;46.30
24422;BME280;12600;53.326;-6.298;2023-08-06T12:47:49;101564.34;;;24.56;45.55
24422;BME280;12600;53.326;-6.298;2023-08-06T12:50:38;101559.81;;;25.26;46.37
24422;BME280;12600;53.326;-6.298;2023-08-06T12:53:27;101567.56;;;26.12;46.17
24422;BME280;12600;53.326;-6.298;2023-08-06T12:56:17;101574.47;;;26.36;42.01
24422;BME280;12600;53.326;-6.298;2023-08-06T12:59:06;101575.34;;;26.62;42.24
24422;BME280;12600;53.326;-6.298;2023-08-06T13:01:57;101579.75;;;26.52;41.79
24422;BME280;12600;53.326;-6.298;2023-08-06T13:04:47;101581.56;;;26.09;43.08
24422;BME280;12600;53.326;-6.298;2023-08-06T13:07:36;101581.09;;;25.96;43.16
24422;BME280;12600;53.326;-6.298;2023-08-06T13:10:25;101583.53;;;25.43;43.28
24422;BME280;12600;53.326;-6.298;2023-08-06T13:13:16;101575.38;;;24.82;44.48
24422;BME280;12600;53.326;-6.298;2023-08-06T13:16:06;101582.94;;;24.45;45.44
24422;BME280;12600;53.326;-6.298;2023-08-06T13:18:57;101581.41;;;24.47;44.86
24422;BME280;12600;53.326;-6.298;2023-08-06T13:22:00;101575.66;;;24.70;43.14
24422;BME280;12600;53.326;-6.298;2023-08-06T13:24:51;101571.06;;;25.33;43.80
24422;BME280;12600;53.326;-6.298;2023-08-06T13:27:40;101575.44;;;25.89;42.63
24422;BME280;12600;53.326;-6.298;2023-08-06T13:30:31;101578.78;;;26.12;41.89
24422;BME280;12600;53.326;-6.298;2023-08-06T13:33:22;101571.97;;;26.10;41.72
24422;BME280;12600;53.326;-6.298;2023-08-06T13:36:14;101578.38;;;26.14;41.63
24422;BME280;12600;53.326;-6.298;2023-08-06T13:39:04;101572.72;;;26.03;42.41
24422;BME280;12600;53.326;-6.298;2023-08-06T13:41:53;101580.25;;;25.85;42.63
24422;BME280;12600;53.326;-6.298;2023-08-06T13:44:43;101576.75;;;24.99;41.71
24422;BME280;12600;53.326;-6.298;2023-08-06T13:47:32;101578.97;;;25.24;42.41
24422;BME280;12600;53.326;-6.298;2023-08-06T13:50:22;101581.25;;;25.59;41.78
24422;BME280;12600;53.326;-6.298;2023-08-06T13:53:14;101583.44;;;25.83;42.23
24422;BME280;12600;53.326;-6.298;2023-08-06T13:56:04;101579.78;;;25.76;42.32
24422;BME280;12600;53.326;-6.298;2023-08-06T13:58:54;101581.09;;;25.41;42.55
24422;BME280;12600;53.326;-6.298;2023-08-06T14:01:43;101590.41;;;25.04;43.68
24422;BME280;12600;53.326;-6.298;2023-08-06T14:04:39;101583.44;;;24.91;44.12
24422;BME280;12600;53.326;-6.298;2023-08-06T14:07:29;101589.06;;;25.35;44.01
24422;BME280;12600;53.326;-6.298;2023-08-06T14:10:19;101596.22;;;25.33;40.38
24422;BME280;12600;53.326;-6.298;2023-08-06T14:13:08;101588.06;;;25.61;40.02
24422;BME280;12600;53.326;-6.298;2023-08-06T14:15:58;101603.41;;;25.82;38.81
24422;BME280;12600;53.326;-6.298;2023-08-06T14:18:47;101599.09;;;25.91;37.42
24422;BME280;12600;53.326;-6.298;2023-08-06T14:21:37;101609.53;;;26.05;37.17
24422;BME280;12600;53.326;-6.298;2023-08-06T14:24:26;101589.66;;;26.28;36.84
24422;BME280;12600;53.326;-6.298;2023-08-06T14:27:17;101597.75;;;26.55;36.85
24422;BME280;12600;53.326;-6.298;2023-08-06T14:30:08;101613.75;;;26.40;36.76
24422;BME280;12600;53.326;-6.298;2023-08-06T14:32:57;101603.38;;;26.51;37.57
24422;BME280;12600;53.326;-6.298;2023-08-06T14:35:59;101605.34;;;26.40;38.36
24422;BME280;12600;53.326;-6.298;2023-08-06T14:38:49;101617.28;;;26.33;38.23
24422;BME280;12600;53.326;-6.298;2023-08-06T14:41:47;101614.22;;;26.60;38.85